createdAt,value
2018-08-25T00:00:16.820Z,8.43
2018-08-25T00:02:45.194Z,12.30
2018-08-25T00:05:13.551Z,16.20
2018-08-25T00:07:41.888Z,11.12
2018-08-25T00:10:10.284Z,14.93
2018-08-25T00:12:38.644Z,10.00
2018-08-25T00:15:07.059Z,14.13
2018-08-25T00:17:35.395Z,11.63
2018-08-25T00:20:03.804Z,14.33
2018-08-25T00:22:32.138Z,17.15
2018-08-25T00:25:00.519Z,9.35
2018-08-25T00:27:28.845Z,12.47
2018-08-25T00:29:57.509Z,13.93
2018-08-25T00:32:25.839Z,11.25
2018-08-25T00:34:54.196Z,12.20
2018-08-25T00:37:22.515Z,12.88
2018-08-25T00:39:50.911Z,9.85
2018-08-25T00:42:19.248Z,11.28
2018-08-25T00:44:47.675Z,10.18
2018-08-25T00:47:16.001Z,10.43
2018-08-25T00:49:44.358Z,10.13
2018-08-25T00:52:12.693Z,10.58
2018-08-25T00:54:41.049Z,16.07
2018-08-25T00:57:09.423Z,17.75
2018-08-25T00:59:37.776Z,12.65
2018-08-25T01:02:06.144Z,15.43
2018-08-25T01:04:34.520Z,12.25
2018-08-25T01:07:02.840Z,17.07
2018-08-25T01:09:31.220Z,17.30
2018-08-25T01:11:59.568Z,20.02
2018-08-25T01:14:27.925Z,20.10
2018-08-25T01:16:56.280Z,14.03
2018-08-25T01:19:24.620Z,17.67
2018-08-25T01:21:52.944Z,22.73
2018-08-25T01:24:21.271Z,24.47
2018-08-25T01:26:49.640Z,25.97
2018-08-25T01:29:17.970Z,22.85
2018-08-25T01:31:46.316Z,18.98
2018-08-25T01:34:14.637Z,17.87
2018-08-25T01:36:42.980Z,14.63
2018-08-25T01:39:11.308Z,18.27
2018-08-25T01:41:39.639Z,14.23
2018-08-25T01:44:07.991Z,19.50
2018-08-25T01:46:36.331Z,16.62
2018-08-25T01:49:04.654Z,16.05
2018-08-25T01:51:32.997Z,20.35
2018-08-25T01:54:01.327Z,18.48
2018-08-25T01:56:29.672Z,18.25
2018-08-25T01:58:58.008Z,13.83
2018-08-25T02:01:26.361Z,16.50
2018-08-25T02:03:54.678Z,15.35
2018-08-25T02:06:23.032Z,21.23
2018-08-25T02:08:51.352Z,21.42
2018-08-25T02:11:19.699Z,20.57
2018-08-25T02:13:48.036Z,17.73
2018-08-25T02:16:16.395Z,16.95
2018-08-25T02:18:44.728Z,18.80
2018-08-25T02:21:13.085Z,15.78
2018-08-25T02:23:41.408Z,16.80
2018-08-25T02:26:09.746Z,15.40
2018-08-25T02:28:38.076Z,16.73
2018-08-25T02:31:06.412Z,17.30
2018-08-25T02:33:34.781Z,21.05
2018-08-25T02:36:03.141Z,16.57
2018-08-25T02:38:31.511Z,19.50
2018-08-25T02:40:59.837Z,19.85
2018-08-25T02:43:28.164Z,17.20
2018-08-25T02:45:56.521Z,15.30
2018-08-25T02:48:24.858Z,17.82
2018-08-25T02:50:53.205Z,19.85
2018-08-25T02:53:21.533Z,19.80
2018-08-25T02:55:49.884Z,24.45
2018-08-25T02:58:18.249Z,15.45
2018-08-25T03:00:46.592Z,17.95
2018-08-25T03:03:14.949Z,16.57
2018-08-25T03:05:43.292Z,29.57
2018-08-25T03:08:11.680Z,14.60
2018-08-25T03:10:40.055Z,14.87
2018-08-25T03:13:08.416Z,15.60
2018-08-25T03:15:36.997Z,13.43
2018-08-25T03:18:05.336Z,21.55
2018-08-25T03:20:33.653Z,17.37
2018-08-25T03:23:01.995Z,27.45
2018-08-25T03:25:30.373Z,16.87
2018-08-25T03:27:58.799Z,21.42
2018-08-25T03:30:27.134Z,22.58
2018-08-25T03:32:55.492Z,12.43
2018-08-25T03:35:23.832Z,19.92
2018-08-25T03:37:52.181Z,18.07
2018-08-25T03:40:20.504Z,16.37
2018-08-25T03:42:48.859Z,24.55
2018-08-25T03:45:17.296Z,17.10
2018-08-25T03:47:45.631Z,14.50
2018-08-25T03:50:13.999Z,18.02
2018-08-25T03:52:42.336Z,15.43
2018-08-25T03:55:10.656Z,21.97
2018-08-25T03:57:38.996Z,19.95
2018-08-25T04:00:07.604Z,18.50
2018-08-25T04:02:35.988Z,17.10
2018-08-25T04:05:04.432Z,14.47
2018-08-25T04:07:32.776Z,14.55
2018-08-25T04:10:01.152Z,18.67
2018-08-25T04:12:29.500Z,14.90
2018-08-25T04:14:57.846Z,17.42
2018-08-25T04:17:26.278Z,16.65
2018-08-25T04:19:54.596Z,18.10
2018-08-25T04:22:23.074Z,15.38
2018-08-25T04:24:51.301Z,15.13
2018-08-25T04:27:19.645Z,11.65
2018-08-25T04:29:47.999Z,16.82
2018-08-25T04:32:16.356Z,13.98
2018-08-25T04:34:44.755Z,20.27
2018-08-25T04:37:13.114Z,15.50
2018-08-25T04:39:41.458Z,15.40
2018-08-25T04:42:09.797Z,14.78
2018-08-25T04:44:38.116Z,15.80
2018-08-25T04:47:06.472Z,15.15
2018-08-25T04:49:34.788Z,18.50
2018-08-25T04:52:03.165Z,16.02
2018-08-25T04:54:31.488Z,15.30
2018-08-25T04:56:59.843Z,25.50
2018-08-25T04:59:28.161Z,11.20
2018-08-25T05:01:56.621Z,13.80
2018-08-25T05:04:24.861Z,12.13
2018-08-25T05:06:53.188Z,15.90
2018-08-25T05:09:21.560Z,13.22
2018-08-25T05:11:49.880Z,16.23
2018-08-25T05:14:18.216Z,10.65
2018-08-25T05:16:46.531Z,12.93
2018-08-25T05:19:14.897Z,10.68
2018-08-25T05:21:43.221Z,12.65
2018-08-25T05:24:11.565Z,18.07
2018-08-25T05:26:39.899Z,13.75
2018-08-25T05:29:08.260Z,9.95
2018-08-25T05:31:36.572Z,13.95
2018-08-25T05:34:04.925Z,11.20
2018-08-25T05:36:33.240Z,14.07
2018-08-25T05:39:01.584Z,16.95
2018-08-25T05:41:29.918Z,19.60
2018-08-25T05:43:58.264Z,12.93
2018-08-25T05:46:26.596Z,17.80
2018-08-25T05:48:54.941Z,19.17
2018-08-25T05:51:23.272Z,18.92
2018-08-25T05:53:51.612Z,20.05
2018-08-25T05:56:19.936Z,14.65
2018-08-25T05:58:48.297Z,14.93
2018-08-25T06:01:16.643Z,10.40
2018-08-25T06:03:44.996Z,10.32
2018-08-25T06:06:13.316Z,19.15
2018-08-25T06:08:41.692Z,15.23
2018-08-25T06:11:10.104Z,12.15
2018-08-25T06:13:38.494Z,13.83
2018-08-25T06:16:06.821Z,10.05
2018-08-25T06:18:35.163Z,10.80
2018-08-25T06:21:03.520Z,12.73
2018-08-25T06:23:31.896Z,16.93
2018-08-25T06:26:00.241Z,10.35
2018-08-25T06:28:28.589Z,16.10
2018-08-25T06:30:56.911Z,13.25
2018-08-25T06:33:25.247Z,16.37
2018-08-25T06:35:53.618Z,13.10
2018-08-25T06:38:21.933Z,13.62
2018-08-25T06:40:50.284Z,12.95
2018-08-25T06:43:18.628Z,12.25
2018-08-25T06:45:51.176Z,15.78
2018-08-25T06:48:19.584Z,14.68
2018-08-25T06:50:47.907Z,13.93
2018-08-25T06:53:16.278Z,12.20
2018-08-25T06:55:44.596Z,6.70
2018-08-25T06:58:12.936Z,10.00
2018-08-25T07:00:41.259Z,17.32
2018-08-25T07:03:09.605Z,13.85
2018-08-25T07:05:37.922Z,11.40
2018-08-25T07:08:06.412Z,13.40
2018-08-25T07:10:34.765Z,17.12
2018-08-25T07:13:03.269Z,9.73
2018-08-25T07:15:31.616Z,11.33
2018-08-25T07:18:00.002Z,9.18
2018-08-25T07:20:28.352Z,6.70
2018-08-25T07:22:56.709Z,9.65
2018-08-25T07:25:25.047Z,11.22
2018-08-25T07:27:53.363Z,9.93
2018-08-25T07:30:21.707Z,8.90
2018-08-25T07:32:50.048Z,10.93
2018-08-25T07:35:18.400Z,15.03
2018-08-25T07:37:46.733Z,10.08
2018-08-25T07:40:15.074Z,8.98
2018-08-25T07:42:43.407Z,12.15
2018-08-25T07:45:11.775Z,7.87
2018-08-25T07:47:40.203Z,10.48
2018-08-25T07:50:09.100Z,9.63
2018-08-25T07:52:37.520Z,8.63
2018-08-25T07:55:05.884Z,15.20
2018-08-25T07:57:34.228Z,15.13
2018-08-25T08:00:02.566Z,12.78
2018-08-25T08:02:30.987Z,7.35
2018-08-25T08:04:59.341Z,8.45
2018-08-25T08:07:27.668Z,10.78
2018-08-25T08:09:56.040Z,9.30
2018-08-25T08:12:24.422Z,18.95
2018-08-25T08:14:52.740Z,9.00
2018-08-25T08:17:21.160Z,11.50
2018-08-25T08:19:49.500Z,13.08
2018-08-25T08:22:17.828Z,13.30
2018-08-25T08:24:46.167Z,10.08
2018-08-25T08:27:14.484Z,11.83
2018-08-25T08:29:42.828Z,12.63
2018-08-25T08:32:11.154Z,11.53
2018-08-25T08:34:39.492Z,9.40
2018-08-25T08:37:08.054Z,9.10
2018-08-25T08:39:38.192Z,7.65
2018-08-25T08:42:06.817Z,15.93
2018-08-25T08:44:35.168Z,5.62
2018-08-25T08:47:03.953Z,6.65
2018-08-25T08:49:32.295Z,9.55
2018-08-25T08:52:00.624Z,12.15
2018-08-25T08:54:28.966Z,8.58
2018-08-25T08:56:57.288Z,9.85
2018-08-25T08:59:25.620Z,7.40
2018-08-25T09:01:54.022Z,15.48
2018-08-25T09:04:22.416Z,5.53
2018-08-25T09:06:50.767Z,7.37
2018-08-25T09:09:19.108Z,8.58
2018-08-25T09:11:47.488Z,11.68
2018-08-25T09:14:15.821Z,10.63
2018-08-25T09:16:44.152Z,7.10
2018-08-25T09:19:12.473Z,5.45
2018-08-25T09:21:40.805Z,5.58
2018-08-25T09:24:09.127Z,4.62
2018-08-25T09:26:37.480Z,5.30
2018-08-25T09:29:06.329Z,4.08
2018-08-25T09:31:34.704Z,11.33
2018-08-25T09:34:03.188Z,13.62
2018-08-25T09:36:31.693Z,9.88
2018-08-25T09:38:59.861Z,6.50
2018-08-25T09:41:28.226Z,7.55
2018-08-25T09:43:56.544Z,4.62
2018-08-25T09:46:24.894Z,6.10
2018-08-25T09:48:53.223Z,5.58
2018-08-25T09:51:21.571Z,11.20
2018-08-25T09:53:49.900Z,4.90
2018-08-25T09:56:18.235Z,3.45
2018-08-25T09:58:46.552Z,5.40
2018-08-25T10:01:20.976Z,6.33
2018-08-25T10:03:49.308Z,5.92
2018-08-25T10:06:17.656Z,6.20
2018-08-25T10:08:46.004Z,9.30
2018-08-25T10:11:14.355Z,8.18
2018-08-25T10:13:42.691Z,6.90
2018-08-25T10:16:11.072Z,3.50
2018-08-25T10:18:39.412Z,3.90
2018-08-25T10:21:07.763Z,4.10
2018-08-25T10:23:36.122Z,7.03
2018-08-25T10:26:04.484Z,5.35
2018-08-25T10:28:32.815Z,6.85
2018-08-25T10:31:01.580Z,5.50
2018-08-25T10:33:29.904Z,7.65
2018-08-25T10:35:58.251Z,4.53
2018-08-25T10:38:26.580Z,5.33
2018-08-25T10:40:54.938Z,6.08
2018-08-25T10:43:23.253Z,3.08
2018-08-25T10:45:51.594Z,6.10
2018-08-25T10:48:19.913Z,4.83
2018-08-25T10:50:48.262Z,4.40
2018-08-25T10:53:16.598Z,6.60
2018-08-25T10:55:44.940Z,8.28
2018-08-25T10:58:13.267Z,4.75
2018-08-25T11:00:41.750Z,4.58
2018-08-25T11:03:09.956Z,12.58
2018-08-25T11:05:38.284Z,4.92
2018-08-25T11:08:06.900Z,7.47
2018-08-25T11:10:35.257Z,6.72
2018-08-25T11:13:03.616Z,13.78
2018-08-25T11:15:31.937Z,3.42
2018-08-25T11:18:00.403Z,6.92
2018-08-25T11:20:28.724Z,5.28
2018-08-25T11:22:57.084Z,3.05
2018-08-25T11:25:25.399Z,4.08
2018-08-25T11:27:53.741Z,3.65
2018-08-25T11:30:22.082Z,2.67
2018-08-25T11:32:50.450Z,3.83
2018-08-25T11:35:18.783Z,3.20
2018-08-25T11:37:47.217Z,8.03
2018-08-25T11:40:15.482Z,4.08
2018-08-25T11:42:43.836Z,5.05
2018-08-25T11:45:12.172Z,5.72
2018-08-25T11:47:40.520Z,4.05
2018-08-25T11:50:08.872Z,8.28
2018-08-25T11:52:37.312Z,4.03
2018-08-25T11:55:06.092Z,4.20
2018-08-25T11:57:34.435Z,3.17
2018-08-25T12:00:02.772Z,5.35
2018-08-25T12:02:31.116Z,6.03
2018-08-25T12:04:59.439Z,3.37
2018-08-25T12:07:27.783Z,6.97
2018-08-25T12:09:56.117Z,7.65
2018-08-25T12:12:24.447Z,4.22
2018-08-25T12:14:52.765Z,13.60
2018-08-25T12:17:21.108Z,3.83
2018-08-25T12:19:49.430Z,2.83
2018-08-25T12:22:17.774Z,2.50
2018-08-25T12:24:46.093Z,6.80
2018-08-25T12:27:14.428Z,4.55
2018-08-25T12:29:42.761Z,4.62
2018-08-25T12:32:11.108Z,5.90
2018-08-25T12:34:39.424Z,2.98
2018-08-25T12:37:07.764Z,3.02
2018-08-25T12:39:36.180Z,9.00
2018-08-25T12:42:04.480Z,5.10
2018-08-25T12:44:32.816Z,3.27
2018-08-25T12:47:01.172Z,4.70
2018-08-25T12:49:29.503Z,6.80
2018-08-25T12:51:57.971Z,12.93
2018-08-25T12:54:26.308Z,3.47
2018-08-25T12:56:54.640Z,4.53
2018-08-25T12:59:22.959Z,5.78
2018-08-25T13:01:51.292Z,2.20
2018-08-25T13:04:19.612Z,2.85
2018-08-25T13:06:47.948Z,3.12
2018-08-25T13:09:16.316Z,1.47
2018-08-25T13:11:44.635Z,1.62
2018-08-25T13:14:12.990Z,1.77
2018-08-25T13:16:41.309Z,2.00
2018-08-25T13:19:09.653Z,1.10
2018-08-25T13:21:38.005Z,2.92
2018-08-25T13:24:06.356Z,2.12
2018-08-25T13:26:34.854Z,3.10
2018-08-25T13:29:03.200Z,4.53
2018-08-25T13:31:31.548Z,1.42
2018-08-25T13:33:59.888Z,0.88
2018-08-25T13:36:28.208Z,2.35
2018-08-25T13:38:56.549Z,1.25
2018-08-25T13:41:24.876Z,2.40
2018-08-25T13:43:53.221Z,4.90
2018-08-25T13:46:21.553Z,3.35
2018-08-25T13:48:49.915Z,2.92
2018-08-25T13:51:18.239Z,1.02
2018-08-25T13:53:46.593Z,3.65
2018-08-25T13:56:14.917Z,5.40
2018-08-25T13:58:43.280Z,3.45
2018-08-25T14:01:11.661Z,1.52
2018-08-25T14:03:40.100Z,1.87
2018-08-25T14:06:08.595Z,1.92
2018-08-25T14:08:36.974Z,1.40
2018-08-25T14:11:05.304Z,2.05
2018-08-25T14:13:33.654Z,1.70
2018-08-25T14:16:02.069Z,2.35
2018-08-25T14:18:30.332Z,2.70
2018-08-25T14:20:58.676Z,3.17
2018-08-25T14:23:27.008Z,2.70
2018-08-25T14:25:55.368Z,1.77
2018-08-25T14:28:23.701Z,1.30
2018-08-25T14:30:52.024Z,1.80
2018-08-25T14:33:20.392Z,4.70
2018-08-25T14:35:48.740Z,3.20
2018-08-25T14:38:17.096Z,1.40
2018-08-25T14:40:45.448Z,2.45
2018-08-25T14:43:13.793Z,2.15
2018-08-25T14:45:42.122Z,4.28
2018-08-25T14:48:13.084Z,4.12
2018-08-25T14:50:41.652Z,3.27
2018-08-25T14:53:10.772Z,2.15
2018-08-25T14:55:39.096Z,13.25
2018-08-25T14:58:07.553Z,65.20
2018-08-25T15:00:36.348Z,28.20
2018-08-25T15:03:04.692Z,34.70
2018-08-25T15:05:33.032Z,9.28
2018-08-25T15:08:01.466Z,1.20
2018-08-25T15:10:30.020Z,0.70
2018-08-25T15:12:59.346Z,2.62
2018-08-25T15:15:28.216Z,1.82
2018-08-25T15:17:57.428Z,11.88
2018-08-25T15:20:26.016Z,3.52
2018-08-25T15:22:54.360Z,2.00
2018-08-25T15:25:22.701Z,0.90
2018-08-25T15:27:51.029Z,2.75
2018-08-25T15:30:19.385Z,3.22
2018-08-25T15:32:47.718Z,4.05
2018-08-25T15:35:16.073Z,62.88
2018-08-25T15:37:44.400Z,55.48
2018-08-25T15:40:12.753Z,22.00
2018-08-25T15:42:41.072Z,38.23
2018-08-25T15:45:09.456Z,17.32
2018-08-25T15:47:37.780Z,12.68
2018-08-25T15:50:06.183Z,21.62
2018-08-25T15:52:34.528Z,7.67
2018-08-25T15:55:02.913Z,1.57
2018-08-25T15:57:31.389Z,3.15
2018-08-25T15:59:59.600Z,4.70
2018-08-25T16:02:27.945Z,1.85
2018-08-25T16:04:56.620Z,2.52
2018-08-25T16:07:24.948Z,1.62
2018-08-25T16:09:53.558Z,1.30
2018-08-25T16:12:21.977Z,6.40
2018-08-25T16:14:50.261Z,1.10
2018-08-25T16:17:18.699Z,2.60
2018-08-25T16:19:47.195Z,3.40
2018-08-25T16:22:15.439Z,1.22
2018-08-25T16:24:43.780Z,5.00
2018-08-25T16:27:12.100Z,1.95
2018-08-25T16:29:40.434Z,2.40
2018-08-25T16:32:08.770Z,1.10
2018-08-25T16:34:37.120Z,2.60
2018-08-25T16:37:05.444Z,3.15
2018-08-25T16:39:33.986Z,8.13
2018-08-25T16:42:02.279Z,3.27
2018-08-25T16:44:30.617Z,5.28
2018-08-25T16:46:58.956Z,2.42
2018-08-25T16:49:27.382Z,1.98
2018-08-25T16:51:55.656Z,1.80
2018-08-25T16:54:23.996Z,1.70
2018-08-25T16:56:52.337Z,1.45
2018-08-25T16:59:20.712Z,5.12
2018-08-25T17:01:49.066Z,3.52
2018-08-25T17:04:17.404Z,1.42
2018-08-25T17:06:45.730Z,1.70
2018-08-25T17:09:14.073Z,3.47
2018-08-25T17:11:42.412Z,2.80
2018-08-25T17:14:10.729Z,0.98
2018-08-25T17:16:39.083Z,1.47
2018-08-25T17:19:07.517Z,1.07
2018-08-25T17:21:35.854Z,2.42
2018-08-25T17:24:04.174Z,2.35
2018-08-25T17:26:32.516Z,5.00
2018-08-25T17:29:00.853Z,4.03
2018-08-25T17:31:29.212Z,2.92
2018-08-25T17:33:57.627Z,1.60
2018-08-25T17:36:25.985Z,1.55
2018-08-25T17:38:54.320Z,2.65
2018-08-25T17:41:22.659Z,1.45
2018-08-25T17:46:11.752Z,2.05
2018-08-25T17:48:40.062Z,4.67
2018-08-25T17:51:08.477Z,2.27
2018-08-25T17:53:36.810Z,2.22
2018-08-25T17:56:05.767Z,10.10
2018-08-25T17:58:34.329Z,2.70
2018-08-25T18:01:02.661Z,3.70
2018-08-25T18:03:31.027Z,2.15
2018-08-25T18:05:59.381Z,2.95
2018-08-25T18:08:27.718Z,1.72
2018-08-25T18:10:56.124Z,4.40
2018-08-25T18:13:24.412Z,4.70
2018-08-25T18:15:52.756Z,4.22
2018-08-25T18:18:21.080Z,1.77
2018-08-25T18:20:49.424Z,3.02
2018-08-25T18:23:17.767Z,2.98
2018-08-25T18:25:46.129Z,3.75
2018-08-25T18:28:14.449Z,1.52
2018-08-25T18:30:42.780Z,3.47
2018-08-25T18:33:11.093Z,1.50
2018-08-25T18:35:39.457Z,1.80
2018-08-25T18:38:07.813Z,2.02
2018-08-25T18:40:36.152Z,1.40
2018-08-25T18:43:04.492Z,3.55
2018-08-25T18:45:32.841Z,2.20
2018-08-25T18:48:01.275Z,3.33
2018-08-25T18:50:29.644Z,4.25
2018-08-25T18:52:57.998Z,4.30
2018-08-25T18:55:26.324Z,7.12
2018-08-25T18:57:54.679Z,1.90
2018-08-25T19:00:23.001Z,2.47
2018-08-25T19:02:51.339Z,2.62
2018-08-25T19:05:19.670Z,1.57
2018-08-25T19:07:48.012Z,1.60
2018-08-25T19:10:16.384Z,5.05
2018-08-25T19:12:44.727Z,2.87
2018-08-25T19:15:13.051Z,5.90
2018-08-25T19:17:41.397Z,1.62
2018-08-25T19:20:09.749Z,1.50
2018-08-25T19:22:38.125Z,2.17
2018-08-25T19:25:06.440Z,4.72
2018-08-25T19:27:34.804Z,1.67
2018-08-25T19:30:03.152Z,3.50
2018-08-25T19:32:31.516Z,3.70
2018-08-25T19:34:59.857Z,4.67
2018-08-25T19:37:28.216Z,1.50
2018-08-25T19:39:56.540Z,3.87
2018-08-25T19:42:24.895Z,2.98
2018-08-25T19:44:53.211Z,3.75
2018-08-25T19:47:21.583Z,1.60
2018-08-25T19:49:49.902Z,5.42
2018-08-25T19:52:18.248Z,3.10
2018-08-25T19:54:46.576Z,8.15
2018-08-25T19:57:14.920Z,4.78
2018-08-25T19:59:43.240Z,2.65
2018-08-25T20:02:11.579Z,2.50
2018-08-25T20:04:39.908Z,2.35
2018-08-25T20:07:08.253Z,3.75
2018-08-25T20:09:36.606Z,3.08
2018-08-25T20:12:05.005Z,3.83
2018-08-25T20:14:33.323Z,3.15
2018-08-25T20:17:01.727Z,6.00
2018-08-25T20:19:30.044Z,3.22
2018-08-25T20:21:58.392Z,4.70
2018-08-25T20:24:26.708Z,3.27
2018-08-25T20:26:55.043Z,4.08
2018-08-25T20:29:23.372Z,4.00
2018-08-25T20:31:51.745Z,5.10
2018-08-25T20:34:20.064Z,4.40
2018-08-25T20:36:48.417Z,6.40
2018-08-25T20:39:16.740Z,2.65
2018-08-25T20:41:45.079Z,5.00
2018-08-25T20:44:13.400Z,3.02
2018-08-25T20:46:41.740Z,6.67
2018-08-25T20:49:10.058Z,9.10
2018-08-25T20:51:38.403Z,5.62
2018-08-25T20:54:06.746Z,3.30
2018-08-25T20:56:35.067Z,3.27
2018-08-25T20:59:03.925Z,10.13
2018-08-25T21:01:32.252Z,3.90
2018-08-25T21:04:00.572Z,2.87
2018-08-25T21:06:28.994Z,3.72
2018-08-25T21:08:57.320Z,5.58
2018-08-25T21:11:25.688Z,5.60
2018-08-25T21:13:54.017Z,4.65
2018-08-25T21:16:22.375Z,3.30
2018-08-25T21:18:50.704Z,2.80
2018-08-25T21:21:19.104Z,3.22
2018-08-25T21:23:47.455Z,5.42
2018-08-25T21:26:15.804Z,3.42
2018-08-25T21:28:44.123Z,3.42
2018-08-25T21:31:12.483Z,3.95
2018-08-25T21:33:40.812Z,2.37
2018-08-25T21:36:09.201Z,4.87
2018-08-25T21:38:37.532Z,5.65
2018-08-25T21:41:06.146Z,8.43
2018-08-25T21:43:34.461Z,5.03
2018-08-25T21:46:02.829Z,4.92
2018-08-25T21:48:31.143Z,8.48
2018-08-25T21:50:59.483Z,4.95
2018-08-25T21:53:27.989Z,7.15
2018-08-25T21:55:56.321Z,2.98
2018-08-25T21:58:24.679Z,3.58
2018-08-25T22:00:55.052Z,5.15
2018-08-25T22:03:23.743Z,4.22
2018-08-25T22:05:52.692Z,2.70
2018-08-25T22:08:21.173Z,6.90
2018-08-25T22:10:49.616Z,3.20
2018-08-25T22:13:17.944Z,5.28
2018-08-25T22:15:46.306Z,4.20
2018-08-25T22:18:14.640Z,6.45
2018-08-25T22:20:42.954Z,8.03
2018-08-25T22:23:11.322Z,4.08
2018-08-25T22:25:39.660Z,2.95
2018-08-25T22:28:08.020Z,6.47
2018-08-25T22:30:36.404Z,3.25
2018-08-25T22:33:04.811Z,4.53
2018-08-25T22:35:33.118Z,2.40
2018-08-25T22:38:01.602Z,3.00
2018-08-25T22:40:29.925Z,4.62
2018-08-25T22:42:58.296Z,7.83
2018-08-25T22:45:26.625Z,4.53
2018-08-25T22:47:54.951Z,8.45
2018-08-25T22:50:23.308Z,2.22
2018-08-25T22:52:52.620Z,3.30
2018-08-25T22:55:22.577Z,7.55
2018-08-25T22:57:50.963Z,6.30
2018-08-25T23:00:19.957Z,6.22
2018-08-25T23:02:48.352Z,4.20
2018-08-25T23:05:16.730Z,5.87
2018-08-25T23:07:45.069Z,3.98
2018-08-25T23:10:13.409Z,7.37
2018-08-25T23:12:41.727Z,4.30
2018-08-25T23:15:10.068Z,4.45
2018-08-25T23:17:38.384Z,6.85
2018-08-25T23:20:06.760Z,3.25
2018-08-25T23:22:35.080Z,4.55
2018-08-25T23:25:03.529Z,3.02
2018-08-25T23:27:31.896Z,4.37
2018-08-25T23:30:00.209Z,4.15
2018-08-25T23:32:28.576Z,6.65
2018-08-25T23:34:56.909Z,3.80
2018-08-25T23:37:25.308Z,4.60
2018-08-25T23:39:53.684Z,3.75
2018-08-25T23:42:22.048Z,3.10
2018-08-25T23:44:50.392Z,4.72
2018-08-25T23:47:18.765Z,6.97
2018-08-25T23:49:47.090Z,3.47
2018-08-25T23:52:15.557Z,5.75
2018-08-25T23:54:43.875Z,3.83
2018-08-25T23:57:12.228Z,8.65
2018-08-25T23:59:40.552Z,3.30
